sensor_id;sensor_type;location;lat;lon;timestamp;temperature;humidity
11736;DHT22;5924;51.398;7.088;2024-03-06T00:00:55;3.00;99.90
11736;DHT22;5924;51.398;7.088;2024-03-06T00:03:21;3.00;99.90
11736;DHT22;5924;51.398;7.088;2024-03-06T00:05:47;2.90;99.90
11736;DHT22;5924;51.398;7.088;2024-03-06T00:08:14;2.90;99.90
11736;DHT22;5924;51.398;7.088;2024-03-06T00:10:41;2.90;99.90
11736;DHT22;5924;51.398;7.088;2024-03-06T00:13:07;2.90;99.90
11736;DHT22;5924;51.398;7.088;2024-03-06T00:15:33;2.90;99.90
11736;DHT22;5924;51.398;7.088;2024-03-06T00:17:59;5.10;99.90
11736;DHT22;5924;51.398;7.088;2024-03-06T00:20:26;2.80;99.90
11736;DHT22;5924;51.398;7.088;2024-03-06T00:22:52;2.80;99.90
11736;DHT22;5924;51.398;7.088;2024-03-06T00:25:17;2.80;99.90
11736;DHT22;5924;51.398;7.088;2024-03-06T00:27:43;2.70;99.90
11736;DHT22;5924;51.398;7.088;2024-03-06T00:30:09;2.70;99.90
11736;DHT22;5924;51.398;7.088;2024-03-06T00:32:35;2.60;99.90
11736;DHT22;5924;51.398;7.088;2024-03-06T00:35:00;2.60;99.90
11736;DHT22;5924;51.398;7.088;2024-03-06T00:37:26;2.60;99.90
11736;DHT22;5924;51.398;7.088;2024-03-06T00:39:52;2.50;99.90
11736;DHT22;5924;51.398;7.088;2024-03-06T00:42:17;2.60;99.90
11736;DHT22;5924;51.398;7.088;2024-03-06T00:44:43;2.60;99.90
11736;DHT22;5924;51.398;7.088;2024-03-06T00:47:09;2.60;99.90
11736;DHT22;5924;51.398;7.088;2024-03-06T00:49:34;2.60;99.90
11736;DHT22;5924;51.398;7.088;2024-03-06T00:52:00;2.60;99.90
11736;DHT22;5924;51.398;7.088;2024-03-06T00:54:25;2.70;99.90
11736;DHT22;5924;51.398;7.088;2024-03-06T00:56:51;2.70;99.90
11736;DHT22;5924;51.398;7.088;2024-03-06T00:59:17;2.70;99.90
11736;DHT22;5924;51.398;7.088;2024-03-06T01:01:43;0.30;99.90
11736;DHT22;5924;51.398;7.088;2024-03-06T01:04:09;2.70;99.90
11736;DHT22;5924;51.398;7.088;2024-03-06T01:06:34;2.70;99.90
11736;DHT22;5924;51.398;7.088;2024-03-06T01:09:00;2.60;99.90
11736;DHT22;5924;51.398;7.088;2024-03-06T01:11:26;2.60;99.90
11736;DHT22;5924;51.398;7.088;2024-03-06T01:13:52;2.50;99.90
11736;DHT22;5924;51.398;7.088;2024-03-06T01:16:18;2.50;99.90
11736;DHT22;5924;51.398;7.088;2024-03-06T01:18:43;2.50;99.90
11736;DHT22;5924;51.398;7.088;2024-03-06T01:21:09;2.50;99.90
11736;DHT22;5924;51.398;7.088;2024-03-06T01:23:35;2.50;99.90
11736;DHT22;5924;51.398;7.088;2024-03-06T01:26:01;2.50;99.90
11736;DHT22;5924;51.398;7.088;2024-03-06T01:28:26;2.50;99.90
11736;DHT22;5924;51.398;7.088;2024-03-06T01:30:52;2.50;99.90
11736;DHT22;5924;51.398;7.088;2024-03-06T01:33:18;2.80;99.90
11736;DHT22;5924;51.398;7.088;2024-03-06T01:35:43;2.50;99.90
11736;DHT22;5924;51.398;7.088;2024-03-06T01:38:09;2.40;99.90
11736;DHT22;5924;51.398;7.088;2024-03-06T01:40:35;2.40;99.90
11736;DHT22;5924;51.398;7.088;2024-03-06T01:43:01;2.40;99.90
11736;DHT22;5924;51.398;7.088;2024-03-06T01:45:27;2.40;99.90
11736;DHT22;5924;51.398;7.088;2024-03-06T01:47:52;2.40;99.90
11736;DHT22;5924;51.398;7.088;2024-03-06T01:50:18;2.30;99.90
11736;DHT22;5924;51.398;7.088;2024-03-06T01:52:45;2.30;99.90
11736;DHT22;5924;51.398;7.088;2024-03-06T01:55:12;2.20;99.90
11736;DHT22;5924;51.398;7.088;2024-03-06T01:57:39;2.20;99.90
11736;DHT22;5924;51.398;7.088;2024-03-06T02:00:08;2.10;99.90
11736;DHT22;5924;51.398;7.088;2024-03-06T02:02:41;2.10;99.90
11736;DHT22;5924;51.398;7.088;2024-03-06T02:05:07;2.10;99.90
11736;DHT22;5924;51.398;7.088;2024-03-06T02:07:32;2.00;99.90
11736;DHT22;5924;51.398;7.088;2024-03-06T02:09:59;1.90;99.90
11736;DHT22;5924;51.398;7.088;2024-03-06T02:12:24;1.80;99.90
11736;DHT22;5924;51.398;7.088;2024-03-06T02:14:50;1.70;99.90
11736;DHT22;5924;51.398;7.088;2024-03-06T02:17:16;1.60;99.90
11736;DHT22;5924;51.398;7.088;2024-03-06T02:19:43;1.50;99.90
11736;DHT22;5924;51.398;7.088;2024-03-06T02:22:09;1.70;99.90
11736;DHT22;5924;51.398;7.088;2024-03-06T02:24:36;1.50;99.90
11736;DHT22;5924;51.398;7.088;2024-03-06T02:27:02;1.50;99.90
11736;DHT22;5924;51.398;7.088;2024-03-06T02:29:31;1.60;99.90
11736;DHT22;5924;51.398;7.088;2024-03-06T02:31:57;1.60;99.90
11736;DHT22;5924;51.398;7.088;2024-03-06T02:34:23;1.60;99.90
11736;DHT22;5924;51.398;7.088;2024-03-06T02:36:51;1.60;99.90
11736;DHT22;5924;51.398;7.088;2024-03-06T02:39:17;2.50;99.90
11736;DHT22;5924;51.398;7.088;2024-03-06T02:41:43;1.70;99.90
11736;DHT22;5924;51.398;7.088;2024-03-06T02:44:09;1.60;99.90
11736;DHT22;5924;51.398;7.088;2024-03-06T02:46:34;1.50;99.90
11736;DHT22;5924;51.398;7.088;2024-03-06T02:49:00;1.40;99.90
11736;DHT22;5924;51.398;7.088;2024-03-06T02:51:26;1.40;99.90
11736;DHT22;5924;51.398;7.088;2024-03-06T02:53:52;1.30;99.90
11736;DHT22;5924;51.398;7.088;2024-03-06T02:56:19;1.30;99.90
11736;DHT22;5924;51.398;7.088;2024-03-06T02:58:45;3.10;99.90
11736;DHT22;5924;51.398;7.088;2024-03-06T03:01:11;1.30;99.90
11736;DHT22;5924;51.398;7.088;2024-03-06T03:03:37;1.30;99.90
11736;DHT22;5924;51.398;7.088;2024-03-06T03:06:02;1.30;99.90
11736;DHT22;5924;51.398;7.088;2024-03-06T03:08:30;1.30;99.90
11736;DHT22;5924;51.398;7.088;2024-03-06T03:10:55;1.30;99.90
11736;DHT22;5924;51.398;7.088;2024-03-06T03:13:22;1.40;99.90
11736;DHT22;5924;51.398;7.088;2024-03-06T03:15:48;1.50;99.90
11736;DHT22;5924;51.398;7.088;2024-03-06T03:18:13;1.60;99.90
11736;DHT22;5924;51.398;7.088;2024-03-06T03:20:39;1.70;99.90
11736;DHT22;5924;51.398;7.088;2024-03-06T03:23:05;1.80;99.90
11736;DHT22;5924;51.398;7.088;2024-03-06T03:25:31;1.80;99.90
11736;DHT22;5924;51.398;7.088;2024-03-06T03:27:59;1.80;99.90
11736;DHT22;5924;51.398;7.088;2024-03-06T03:30:24;1.90;99.90
11736;DHT22;5924;51.398;7.088;2024-03-06T03:32:50;1.90;99.90
11736;DHT22;5924;51.398;7.088;2024-03-06T03:35:15;2.00;99.90
11736;DHT22;5924;51.398;7.088;2024-03-06T03:37:42;2.00;99.90
11736;DHT22;5924;51.398;7.088;2024-03-06T03:40:09;2.00;99.90
11736;DHT22;5924;51.398;7.088;2024-03-06T03:42:37;2.10;99.90
11736;DHT22;5924;51.398;7.088;2024-03-06T03:45:03;2.10;99.90
11736;DHT22;5924;51.398;7.088;2024-03-06T03:47:30;2.10;99.90
11736;DHT22;5924;51.398;7.088;2024-03-06T03:49:55;2.10;99.90
11736;DHT22;5924;51.398;7.088;2024-03-06T03:52:21;2.10;99.90
11736;DHT22;5924;51.398;7.088;2024-03-06T03:54:47;2.20;99.90
11736;DHT22;5924;51.398;7.088;2024-03-06T03:57:13;2.20;99.90
11736;DHT22;5924;51.398;7.088;2024-03-06T03:59:40;2.30;99.90
11736;DHT22;5924;51.398;7.088;2024-03-06T04:02:06;2.30;99.90
11736;DHT22;5924;51.398;7.088;2024-03-06T04:04:33;2.30;99.90
11736;DHT22;5924;51.398;7.088;2024-03-06T04:07:00;2.30;99.90
11736;DHT22;5924;51.398;7.088;2024-03-06T04:09:27;2.30;99.90
11736;DHT22;5924;51.398;7.088;2024-03-06T04:11:53;2.30;99.90
11736;DHT22;5924;51.398;7.088;2024-03-06T04:14:19;2.40;99.90
11736;DHT22;5924;51.398;7.088;2024-03-06T04:16:45;2.30;99.90
11736;DHT22;5924;51.398;7.088;2024-03-06T04:19:11;2.20;99.90
11736;DHT22;5924;51.398;7.088;2024-03-06T04:21:43;2.20;99.90
11736;DHT22;5924;51.398;7.088;2024-03-06T04:24:09;2.20;99.90
11736;DHT22;5924;51.398;7.088;2024-03-06T04:26:35;2.20;99.90
11736;DHT22;5924;51.398;7.088;2024-03-06T04:29:01;2.20;99.90
11736;DHT22;5924;51.398;7.088;2024-03-06T04:31:26;2.20;99.90
11736;DHT22;5924;51.398;7.088;2024-03-06T04:33:52;2.20;99.90
11736;DHT22;5924;51.398;7.088;2024-03-06T04:36:18;2.30;99.90
11736;DHT22;5924;51.398;7.088;2024-03-06T04:38:43;2.30;99.90
11736;DHT22;5924;51.398;7.088;2024-03-06T04:41:09;2.30;99.90
11736;DHT22;5924;51.398;7.088;2024-03-06T04:43:36;2.30;99.90
11736;DHT22;5924;51.398;7.088;2024-03-06T04:46:02;2.30;99.90
11736;DHT22;5924;51.398;7.088;2024-03-06T04:48:27;2.40;99.90
11736;DHT22;5924;51.398;7.088;2024-03-06T04:50:53;4.00;99.90
11736;DHT22;5924;51.398;7.088;2024-03-06T04:53:19;2.40;99.90
11736;DHT22;5924;51.398;7.088;2024-03-06T04:55:47;2.40;99.90
11736;DHT22;5924;51.398;7.088;2024-03-06T04:58:13;2.30;99.90
11736;DHT22;5924;51.398;7.088;2024-03-06T05:00:39;2.20;99.90
11736;DHT22;5924;51.398;7.088;2024-03-06T05:03:05;2.10;99.90
11736;DHT22;5924;51.398;7.088;2024-03-06T05:05:30;1.90;99.90
11736;DHT22;5924;51.398;7.088;2024-03-06T05:07:57;1.90;99.90
11736;DHT22;5924;51.398;7.088;2024-03-06T05:10:23;1.90;99.90
11736;DHT22;5924;51.398;7.088;2024-03-06T05:12:49;1.70;99.90
11736;DHT22;5924;51.398;7.088;2024-03-06T05:15:15;1.60;99.90
11736;DHT22;5924;51.398;7.088;2024-03-06T05:17:40;1.50;99.90
11736;DHT22;5924;51.398;7.088;2024-03-06T05:20:07;1.50;99.90
11736;DHT22;5924;51.398;7.088;2024-03-06T05:22:33;1.40;99.90
11736;DHT22;5924;51.398;7.088;2024-03-06T05:24:58;1.40;99.90
11736;DHT22;5924;51.398;7.088;2024-03-06T05:27:25;1.50;99.90
11736;DHT22;5924;51.398;7.088;2024-03-06T05:29:51;1.60;99.90
11736;DHT22;5924;51.398;7.088;2024-03-06T05:32:17;1.40;99.90
11736;DHT22;5924;51.398;7.088;2024-03-06T05:34:43;1.50;99.90
11736;DHT22;5924;51.398;7.088;2024-03-06T05:37:10;1.50;99.90
11736;DHT22;5924;51.398;7.088;2024-03-06T05:39:35;1.50;99.90
11736;DHT22;5924;51.398;7.088;2024-03-06T05:42:02;1.60;99.90
11736;DHT22;5924;51.398;7.088;2024-03-06T05:44:29;1.60;99.90
11736;DHT22;5924;51.398;7.088;2024-03-06T05:46:56;1.60;99.90
11736;DHT22;5924;51.398;7.088;2024-03-06T05:49:22;1.60;99.90
11736;DHT22;5924;51.398;7.088;2024-03-06T05:51:47;1.70;99.90
11736;DHT22;5924;51.398;7.088;2024-03-06T05:54:13;1.60;99.90
11736;DHT22;5924;51.398;7.088;2024-03-06T05:56:39;1.90;99.90
11736;DHT22;5924;51.398;7.088;2024-03-06T05:59:05;1.60;99.90
11736;DHT22;5924;51.398;7.088;2024-03-06T06:01:34;1.50;99.90
11736;DHT22;5924;51.398;7.088;2024-03-06T06:04:00;1.60;99.90
11736;DHT22;5924;51.398;7.088;2024-03-06T06:06:26;1.50;99.90
11736;DHT22;5924;51.398;7.088;2024-03-06T06:08:52;1.50;99.90
11736;DHT22;5924;51.398;7.088;2024-03-06T06:11:17;1.40;99.90
11736;DHT22;5924;51.398;7.088;2024-03-06T06:13:43;1.70;99.90
11736;DHT22;5924;51.398;7.088;2024-03-06T06:16:09;1.40;99.90
11736;DHT22;5924;51.398;7.088;2024-03-06T06:18:34;1.40;99.90
11736;DHT22;5924;51.398;7.088;2024-03-06T06:21:00;1.40;99.90
11736;DHT22;5924;51.398;7.088;2024-03-06T06:23:26;1.40;99.90
11736;DHT22;5924;51.398;7.088;2024-03-06T06:25:52;1.40;99.90
11736;DHT22;5924;51.398;7.088;2024-03-06T06:28:18;1.50;99.90
11736;DHT22;5924;51.398;7.088;2024-03-06T06:30:43;1.40;99.90
11736;DHT22;5924;51.398;7.088;2024-03-06T06:33:09;1.50;99.90
11736;DHT22;5924;51.398;7.088;2024-03-06T06:35:35;1.50;99.90
11736;DHT22;5924;51.398;7.088;2024-03-06T06:38:01;1.60;99.90
11736;DHT22;5924;51.398;7.088;2024-03-06T06:40:27;1.60;99.90
11736;DHT22;5924;51.398;7.088;2024-03-06T06:42:56;1.60;99.90
11736;DHT22;5924;51.398;7.088;2024-03-06T06:45:22;1.70;99.90
11736;DHT22;5924;51.398;7.088;2024-03-06T06:47:48;1.70;99.90
11736;DHT22;5924;51.398;7.088;2024-03-06T06:50:14;1.70;99.90
11736;DHT22;5924;51.398;7.088;2024-03-06T06:52:40;1.80;99.90
11736;DHT22;5924;51.398;7.088;2024-03-06T06:55:07;1.80;99.90
11736;DHT22;5924;51.398;7.088;2024-03-06T06:57:34;1.90;99.90
11736;DHT22;5924;51.398;7.088;2024-03-06T07:00:01;1.90;99.90
11736;DHT22;5924;51.398;7.088;2024-03-06T07:02:26;2.00;99.90
11736;DHT22;5924;51.398;7.088;2024-03-06T07:04:53;2.10;99.90
11736;DHT22;5924;51.398;7.088;2024-03-06T07:07:18;2.20;99.90
11736;DHT22;5924;51.398;7.088;2024-03-06T07:09:44;2.30;99.90
11736;DHT22;5924;51.398;7.088;2024-03-06T07:12:10;2.30;99.90
11736;DHT22;5924;51.398;7.088;2024-03-06T07:14:36;2.40;99.90
11736;DHT22;5924;51.398;7.088;2024-03-06T07:17:01;2.70;99.90
11736;DHT22;5924;51.398;7.088;2024-03-06T07:19:27;2.50;99.90
11736;DHT22;5924;51.398;7.088;2024-03-06T07:21:53;2.60;99.90
11736;DHT22;5924;51.398;7.088;2024-03-06T07:24:19;2.70;99.90
11736;DHT22;5924;51.398;7.088;2024-03-06T07:26:44;2.70;99.90
11736;DHT22;5924;51.398;7.088;2024-03-06T07:29:10;2.80;99.90
11736;DHT22;5924;51.398;7.088;2024-03-06T07:31:43;2.90;99.90
11736;DHT22;5924;51.398;7.088;2024-03-06T07:34:10;3.00;99.90
11736;DHT22;5924;51.398;7.088;2024-03-06T07:36:38;3.30;99.90
11736;DHT22;5924;51.398;7.088;2024-03-06T07:39:04;3.20;99.90
11736;DHT22;5924;51.398;7.088;2024-03-06T07:41:30;3.20;99.90
11736;DHT22;5924;51.398;7.088;2024-03-06T07:43:58;3.20;99.90
11736;DHT22;5924;51.398;7.088;2024-03-06T07:46:25;3.30;99.90
11736;DHT22;5924;51.398;7.088;2024-03-06T07:48:51;3.40;99.90
11736;DHT22;5924;51.398;7.088;2024-03-06T07:51:17;3.60;99.90
11736;DHT22;5924;51.398;7.088;2024-03-06T07:53:43;3.90;99.90
11736;DHT22;5924;51.398;7.088;2024-03-06T07:56:11;3.90;99.90
11736;DHT22;5924;51.398;7.088;2024-03-06T07:58:38;4.00;99.90
11736;DHT22;5924;51.398;7.088;2024-03-06T08:01:04;4.10;99.90
11736;DHT22;5924;51.398;7.088;2024-03-06T08:03:29;4.20;99.90
11736;DHT22;5924;51.398;7.088;2024-03-06T08:05:55;4.30;99.90
11736;DHT22;5924;51.398;7.088;2024-03-06T08:08:21;4.30;99.90
11736;DHT22;5924;51.398;7.088;2024-03-06T08:10:47;4.50;99.90
11736;DHT22;5924;51.398;7.088;2024-03-06T08:13:13;4.60;99.90
11736;DHT22;5924;51.398;7.088;2024-03-06T08:15:39;4.60;99.90
11736;DHT22;5924;51.398;7.088;2024-03-06T08:18:06;4.60;99.90
11736;DHT22;5924;51.398;7.088;2024-03-06T08:20:31;4.70;99.90
11736;DHT22;5924;51.398;7.088;2024-03-06T08:22:57;4.90;99.90
11736;DHT22;5924;51.398;7.088;2024-03-06T08:25:23;4.90;99.90
11736;DHT22;5924;51.398;7.088;2024-03-06T08:27:49;5.00;99.90
11736;DHT22;5924;51.398;7.088;2024-03-06T08:30:14;6.80;99.90
11736;DHT22;5924;51.398;7.088;2024-03-06T08:32:40;5.20;99.90
11736;DHT22;5924;51.398;7.088;2024-03-06T08:35:13;5.20;99.90
11736;DHT22;5924;51.398;7.088;2024-03-06T08:37:40;5.30;99.90
11736;DHT22;5924;51.398;7.088;2024-03-06T08:40:06;5.40;99.90
11736;DHT22;5924;51.398;7.088;2024-03-06T08:42:43;5.60;99.90
11736;DHT22;5924;51.398;7.088;2024-03-06T08:45:09;5.70;99.90
11736;DHT22;5924;51.398;7.088;2024-03-06T08:47:35;5.70;99.90
11736;DHT22;5924;51.398;7.088;2024-03-06T08:50:01;5.70;99.90
11736;DHT22;5924;51.398;7.088;2024-03-06T08:52:28;5.80;99.90
11736;DHT22;5924;51.398;7.088;2024-03-06T08:54:54;5.90;99.90
11736;DHT22;5924;51.398;7.088;2024-03-06T08:57:19;6.00;99.90
11736;DHT22;5924;51.398;7.088;2024-03-06T08:59:47;6.00;99.90
11736;DHT22;5924;51.398;7.088;2024-03-06T09:02:14;6.00;99.90
11736;DHT22;5924;51.398;7.088;2024-03-06T09:04:41;6.10;99.90
11736;DHT22;5924;51.398;7.088;2024-03-06T09:07:07;6.20;99.90
11736;DHT22;5924;51.398;7.088;2024-03-06T09:09:34;6.20;99.90
11736;DHT22;5924;51.398;7.088;2024-03-06T09:12:09;6.30;99.90
11736;DHT22;5924;51.398;7.088;2024-03-06T09:14:40;6.20;99.90
11736;DHT22;5924;51.398;7.088;2024-03-06T09:17:06;6.30;99.90
11736;DHT22;5924;51.398;7.088;2024-03-06T09:19:35;6.50;99.90
11736;DHT22;5924;51.398;7.088;2024-03-06T09:22:01;6.60;99.90
11736;DHT22;5924;51.398;7.088;2024-03-06T09:24:26;6.80;99.90
11736;DHT22;5924;51.398;7.088;2024-03-06T09:26:53;6.80;99.90
11736;DHT22;5924;51.398;7.088;2024-03-06T09:29:19;7.00;99.90
11736;DHT22;5924;51.398;7.088;2024-03-06T09:31:46;7.00;99.90
11736;DHT22;5924;51.398;7.088;2024-03-06T09:34:13;7.20;99.90
11736;DHT22;5924;51.398;7.088;2024-03-06T09:36:45;7.20;99.90
11736;DHT22;5924;51.398;7.088;2024-03-06T09:39:15;7.10;99.90
11736;DHT22;5924;51.398;7.088;2024-03-06T09:41:49;7.30;99.90
11736;DHT22;5924;51.398;7.088;2024-03-06T09:44:16;7.40;99.90
11736;DHT22;5924;51.398;7.088;2024-03-06T09:46:46;7.40;99.90
11736;DHT22;5924;51.398;7.088;2024-03-06T09:49:15;7.30;99.90
11736;DHT22;5924;51.398;7.088;2024-03-06T09:51:43;7.30;99.90
11736;DHT22;5924;51.398;7.088;2024-03-06T09:54:13;7.20;99.90
11736;DHT22;5924;51.398;7.088;2024-03-06T09:56:43;7.40;99.90
11736;DHT22;5924;51.398;7.088;2024-03-06T09:59:09;7.60;99.90
11736;DHT22;5924;51.398;7.088;2024-03-06T10:01:39;7.80;99.90
11736;DHT22;5924;51.398;7.088;2024-03-06T10:04:25;7.90;99.90
11736;DHT22;5924;51.398;7.088;2024-03-06T10:06:56;8.00;99.90
11736;DHT22;5924;51.398;7.088;2024-03-06T10:09:22;8.10;99.90
11736;DHT22;5924;51.398;7.088;2024-03-06T10:11:48;8.20;99.90
11736;DHT22;5924;51.398;7.088;2024-03-06T10:14:15;8.20;99.90
11736;DHT22;5924;51.398;7.088;2024-03-06T10:17:09;8.20;99.90
11736;DHT22;5924;51.398;7.088;2024-03-06T10:19:35;8.20;99.90
11736;DHT22;5924;51.398;7.088;2024-03-06T10:22:06;8.40;99.90
11736;DHT22;5924;51.398;7.088;2024-03-06T10:24:33;8.60;99.90
11736;DHT22;5924;51.398;7.088;2024-03-06T10:27:00;8.70;99.90
11736;DHT22;5924;51.398;7.088;2024-03-06T10:29:28;8.60;99.90
11736;DHT22;5924;51.398;7.088;2024-03-06T10:31:56;8.60;99.90
11736;DHT22;5924;51.398;7.088;2024-03-06T10:34:29;8.60;99.90
11736;DHT22;5924;51.398;7.088;2024-03-06T10:36:59;8.70;99.90
11736;DHT22;5924;51.398;7.088;2024-03-06T10:39:25;8.90;99.90
11736;DHT22;5924;51.398;7.088;2024-03-06T10:41:53;9.00;99.90
11736;DHT22;5924;51.398;7.088;2024-03-06T10:44:22;9.20;99.90
11736;DHT22;5924;51.398;7.088;2024-03-06T10:46:55;9.30;99.90
11736;DHT22;5924;51.398;7.088;2024-03-06T10:49:25;10.90;99.90
11736;DHT22;5924;51.398;7.088;2024-03-06T10:51:52;9.30;99.90
11736;DHT22;5924;51.398;7.088;2024-03-06T10:54:19;9.40;99.90
11736;DHT22;5924;51.398;7.088;2024-03-06T10:56:46;9.40;99.90
11736;DHT22;5924;51.398;7.088;2024-03-06T10:59:14;9.30;99.90
11736;DHT22;5924;51.398;7.088;2024-03-06T11:01:41;9.20;99.90
11736;DHT22;5924;51.398;7.088;2024-03-06T11:04:09;9.20;99.90
11736;DHT22;5924;51.398;7.088;2024-03-06T11:06:37;9.20;99.90
11736;DHT22;5924;51.398;7.088;2024-03-06T11:09:04;10.40;99.90
11736;DHT22;5924;51.398;7.088;2024-03-06T11:11:29;9.40;99.90
11736;DHT22;5924;51.398;7.088;2024-03-06T11:14:05;9.40;99.90
11736;DHT22;5924;51.398;7.088;2024-03-06T11:19:22;9.70;99.90
11736;DHT22;5924;51.398;7.088;2024-03-06T11:21:48;9.90;99.90
11736;DHT22;5924;51.398;7.088;2024-03-06T11:24:18;10.00;99.90
11736;DHT22;5924;51.398;7.088;2024-03-06T11:29:22;10.10;99.90
11736;DHT22;5924;51.398;7.088;2024-03-06T11:32:01;10.30;99.90
11736;DHT22;5924;51.398;7.088;2024-03-06T11:34:28;10.40;99.90
11736;DHT22;5924;51.398;7.088;2024-03-06T11:36:58;10.50;99.90
11736;DHT22;5924;51.398;7.088;2024-03-06T11:39:28;10.60;99.90
11736;DHT22;5924;51.398;7.088;2024-03-06T11:41:55;10.70;99.90
11736;DHT22;5924;51.398;7.088;2024-03-06T11:44:22;10.80;99.90
11736;DHT22;5924;51.398;7.088;2024-03-06T11:47:20;10.80;99.90
11736;DHT22;5924;51.398;7.088;2024-03-06T11:49:46;10.90;99.90
11736;DHT22;5924;51.398;7.088;2024-03-06T11:52:12;10.90;99.90
11736;DHT22;5924;51.398;7.088;2024-03-06T11:54:37;11.00;99.90
11736;DHT22;5924;51.398;7.088;2024-03-06T11:57:05;11.00;99.90
11736;DHT22;5924;51.398;7.088;2024-03-06T11:59:35;10.80;99.90
11736;DHT22;5924;51.398;7.088;2024-03-06T12:02:04;10.70;99.90
11736;DHT22;5924;51.398;7.088;2024-03-06T12:04:31;10.60;99.90
11736;DHT22;5924;51.398;7.088;2024-03-06T12:06:59;10.60;99.90
11736;DHT22;5924;51.398;7.088;2024-03-06T12:09:26;10.60;99.90
11736;DHT22;5924;51.398;7.088;2024-03-06T12:11:52;10.70;99.90
11736;DHT22;5924;51.398;7.088;2024-03-06T12:14:19;10.80;99.90
11736;DHT22;5924;51.398;7.088;2024-03-06T12:16:58;10.90;99.90
11736;DHT22;5924;51.398;7.088;2024-03-06T12:19:28;11.00;99.90
11736;DHT22;5924;51.398;7.088;2024-03-06T12:21:55;11.10;99.90
11736;DHT22;5924;51.398;7.088;2024-03-06T12:24:21;11.20;99.90
11736;DHT22;5924;51.398;7.088;2024-03-06T12:26:57;11.50;99.90
11736;DHT22;5924;51.398;7.088;2024-03-06T12:29:23;11.80;99.90
11736;DHT22;5924;51.398;7.088;2024-03-06T12:31:49;12.20;99.90
11736;DHT22;5924;51.398;7.088;2024-03-06T12:34:14;12.50;99.90
11736;DHT22;5924;51.398;7.088;2024-03-06T12:36:43;12.40;99.90
11736;DHT22;5924;51.398;7.088;2024-03-06T12:39:09;12.20;99.90
11736;DHT22;5924;51.398;7.088;2024-03-06T12:41:41;12.00;99.90
11736;DHT22;5924;51.398;7.088;2024-03-06T12:44:07;11.80;99.90
11736;DHT22;5924;51.398;7.088;2024-03-06T12:46:33;11.70;99.90
11736;DHT22;5924;51.398;7.088;2024-03-06T12:48:59;11.70;99.90
11736;DHT22;5924;51.398;7.088;2024-03-06T12:51:25;11.80;99.90
11736;DHT22;5924;51.398;7.088;2024-03-06T12:53:51;12.00;99.90
11736;DHT22;5924;51.398;7.088;2024-03-06T12:56:17;12.30;99.90
11736;DHT22;5924;51.398;7.088;2024-03-06T12:58:43;12.40;99.90
11736;DHT22;5924;51.398;7.088;2024-03-06T13:01:09;12.40;99.90
11736;DHT22;5924;51.398;7.088;2024-03-06T13:03:36;12.40;99.90
11736;DHT22;5924;51.398;7.088;2024-03-06T13:06:02;12.20;99.90
11736;DHT22;5924;51.398;7.088;2024-03-06T13:08:28;12.10;99.90
11736;DHT22;5924;51.398;7.088;2024-03-06T13:10:54;12.10;99.90
11736;DHT22;5924;51.398;7.088;2024-03-06T13:13:19;12.40;99.90
11736;DHT22;5924;51.398;7.088;2024-03-06T13:15:46;12.30;99.90
11736;DHT22;5924;51.398;7.088;2024-03-06T13:18:13;12.20;99.90
11736;DHT22;5924;51.398;7.088;2024-03-06T13:20:39;12.10;99.90
11736;DHT22;5924;51.398;7.088;2024-03-06T13:23:05;11.90;99.90
11736;DHT22;5924;51.398;7.088;2024-03-06T13:25:31;11.80;99.90
11736;DHT22;5924;51.398;7.088;2024-03-06T13:27:57;11.70;99.90
11736;DHT22;5924;51.398;7.088;2024-03-06T13:30:22;11.70;99.90
11736;DHT22;5924;51.398;7.088;2024-03-06T13:32:50;11.50;99.90
11736;DHT22;5924;51.398;7.088;2024-03-06T13:35:15;11.60;99.90
11736;DHT22;5924;51.398;7.088;2024-03-06T13:37:45;11.70;99.90
11736;DHT22;5924;51.398;7.088;2024-03-06T13:40:12;11.20;99.90
11736;DHT22;5924;51.398;7.088;2024-03-06T13:42:41;11.70;99.90
11736;DHT22;5924;51.398;7.088;2024-03-06T13:45:08;11.70;99.90
11736;DHT22;5924;51.398;7.088;2024-03-06T13:47:43;11.60;99.90
11736;DHT22;5924;51.398;7.088;2024-03-06T13:50:16;11.70;99.90
11736;DHT22;5924;51.398;7.088;2024-03-06T13:52:44;11.90;99.90
11736;DHT22;5924;51.398;7.088;2024-03-06T13:55:10;12.20;99.90
11736;DHT22;5924;51.398;7.088;2024-03-06T13:57:37;12.30;99.90
11736;DHT22;5924;51.398;7.088;2024-03-06T14:00:07;12.30;99.90
11736;DHT22;5924;51.398;7.088;2024-03-06T14:02:45;12.40;99.90
11736;DHT22;5924;51.398;7.088;2024-03-06T14:05:12;12.30;99.90
11736;DHT22;5924;51.398;7.088;2024-03-06T14:07:39;12.10;99.90
11736;DHT22;5924;51.398;7.088;2024-03-06T14:10:06;11.80;99.90
11736;DHT22;5924;51.398;7.088;2024-03-06T14:12:34;11.50;99.90
11736;DHT22;5924;51.398;7.088;2024-03-06T14:15:01;11.20;99.90
11736;DHT22;5924;51.398;7.088;2024-03-06T14:17:26;11.00;99.90
11736;DHT22;5924;51.398;7.088;2024-03-06T14:19:52;10.90;99.90
11736;DHT22;5924;51.398;7.088;2024-03-06T14:22:18;10.80;99.90
11736;DHT22;5924;51.398;7.088;2024-03-06T14:24:43;10.70;99.90
11736;DHT22;5924;51.398;7.088;2024-03-06T14:27:09;10.70;99.90
11736;DHT22;5924;51.398;7.088;2024-03-06T14:29:35;10.70;99.90
11736;DHT22;5924;51.398;7.088;2024-03-06T14:32:01;10.80;99.90
11736;DHT22;5924;51.398;7.088;2024-03-06T14:34:26;10.90;99.90
11736;DHT22;5924;51.398;7.088;2024-03-06T14:36:52;11.00;99.90
11736;DHT22;5924;51.398;7.088;2024-03-06T14:39:19;11.00;99.90
11736;DHT22;5924;51.398;7.088;2024-03-06T14:41:48;11.00;99.90
11736;DHT22;5924;51.398;7.088;2024-03-06T14:44:13;11.00;99.90
11736;DHT22;5924;51.398;7.088;2024-03-06T14:46:40;10.90;99.90
11736;DHT22;5924;51.398;7.088;2024-03-06T14:49:07;10.90;99.90
11736;DHT22;5924;51.398;7.088;2024-03-06T14:51:32;10.90;99.90
11736;DHT22;5924;51.398;7.088;2024-03-06T14:53:59;10.80;99.90
11736;DHT22;5924;51.398;7.088;2024-03-06T14:56:25;10.80;99.90
11736;DHT22;5924;51.398;7.088;2024-03-06T14:58:50;10.70;99.90
11736;DHT22;5924;51.398;7.088;2024-03-06T15:01:17;10.70;99.90
11736;DHT22;5924;51.398;7.088;2024-03-06T15:03:43;10.70;99.90
11736;DHT22;5924;51.398;7.088;2024-03-06T15:06:11;10.70;99.90
11736;DHT22;5924;51.398;7.088;2024-03-06T15:08:36;10.70;99.90
11736;DHT22;5924;51.398;7.088;2024-03-06T15:11:02;10.70;99.90
11736;DHT22;5924;51.398;7.088;2024-03-06T15:13:28;10.60;99.90
11736;DHT22;5924;51.398;7.088;2024-03-06T15:15:54;10.60;99.90
11736;DHT22;5924;51.398;7.088;2024-03-06T15:18:19;10.60;99.90
11736;DHT22;5924;51.398;7.088;2024-03-06T15:20:45;10.70;99.90
11736;DHT22;5924;51.398;7.088;2024-03-06T15:23:11;10.70;99.90
11736;DHT22;5924;51.398;7.088;2024-03-06T15:25:37;11.60;99.90
11736;DHT22;5924;51.398;7.088;2024-03-06T15:28:03;10.80;99.90
11736;DHT22;5924;51.398;7.088;2024-03-06T15:30:29;10.90;99.90
11736;DHT22;5924;51.398;7.088;2024-03-06T15:32:57;11.00;99.90
11736;DHT22;5924;51.398;7.088;2024-03-06T15:35:22;11.10;99.90
11736;DHT22;5924;51.398;7.088;2024-03-06T15:37:49;11.20;99.90
11736;DHT22;5924;51.398;7.088;2024-03-06T15:40:14;11.20;99.90
11736;DHT22;5924;51.398;7.088;2024-03-06T15:42:40;11.20;99.90
11736;DHT22;5924;51.398;7.088;2024-03-06T15:45:06;11.20;99.90
11736;DHT22;5924;51.398;7.088;2024-03-06T15:47:32;11.30;99.90
11736;DHT22;5924;51.398;7.088;2024-03-06T15:49:59;11.30;99.90
11736;DHT22;5924;51.398;7.088;2024-03-06T15:52:25;11.40;99.90
11736;DHT22;5924;51.398;7.088;2024-03-06T15:54:51;11.30;99.90
11736;DHT22;5924;51.398;7.088;2024-03-06T15:57:17;11.10;99.90
11736;DHT22;5924;51.398;7.088;2024-03-06T15:59:44;11.30;99.90